Latest Weather Observations for Milingimbi

IDD60801

Issued at 12:31 pm CST Saturday 29 August 2015 (issued every 30 minutes, with the page automatically refreshed every 10 minutes)

About weather observations | Map of weather stations | Latest weather observations for NT | Other Formats
Station Details ID: 014404 Name: MILINGIMBI AIRPORT Lat: -12.09 Lon: 134.89 Height: 15.0 m
Data from the previous 72 hours. | See also: Recent months at Milingimbi
Date/Time
CST
Temp
°C
App
Temp
°C
Dew
Point
Rel
Hum
%
Delta-T
°C
Wind Press
QNH
hPa
Press
MSL
hPa
Rain
since 9 am
mm
Dir
 
Spd
km/h
Gust
km/h
Spd
kts
Gust
kts
29/12:30pm 29.1 30.2 19.7 57 6.1 NE 13 24 7 13 1015.8 - 0.0
29/12:00pm 28.8 29.5 19.7 58 5.9 E 15 24 8 13 1016.3 1016.2 0.0
29/11:30am 29.1 30.1 20.3 59 5.8 ESE 15 26 8 14 1016.7 - 0.0
29/11:00am 27.9 28.5 20.2 63 5.1 ESE 17 24 9 13 1017.2 - 0.0
29/10:30am 27.7 28.2 20.8 66 4.6 ESE 19 32 10 17 1017.6 - 0.0
29/10:00am 26.8 28.1 20.9 70 3.9 E 15 24 8 13 1017.6 - 0.0
29/09:30am 26.6 27.0 20.7 70 3.9 E 19 28 10 15 1017.6 - 0.0
29/09:00am 26.0 26.5 21.2 75 3.2 E 20 33 11 18 1017.6 1017.5 0.0
29/08:30am 25.4 26.5 21.3 78 2.7 E 17 28 9 15 1017.3 - 0.0
29/08:00am 25.1 26.5 21.0 78 2.7 E 15 26 8 14 1016.8 - 0.0
29/07:30am 24.3 26.0 21.0 82 2.2 E 13 24 7 13 1016.3 - 0.0
29/07:00am 23.5 25.0 20.6 84 1.9 E 13 17 7 9 1015.9 - 0.0
29/06:30am 23.5 25.6 21.0 86 1.6 E 11 19 6 10 1015.5 - 0.0
29/06:00am 23.2 25.3 20.9 87 1.5 E 11 17 6 9 1015.1 1015.0 0.0
29/05:30am 23.1 25.4 20.6 86 1.6 E 9 19 5 10 1014.7 - 0.0
29/05:00am 23.1 25.4 20.6 86 1.6 E 9 13 5 7 1014.5 - 0.0
29/04:30am 23.1 25.3 20.4 85 1.8 ESE 9 11 5 6 1014.4 - 0.0
29/04:00am 23.2 24.6 20.3 84 1.9 ESE 13 17 7 9 1014.5 - 0.0
29/03:30am 23.2 24.9 20.2 83 1.9 ESE 11 17 6 9 1014.6 - 0.0
29/03:00am 23.0 24.9 19.8 82 2.1 ESE 9 13 5 7 1014.7 1014.6 0.0
29/02:30am 23.0 24.4 19.6 81 2.2 SE 11 15 6 8 1014.6 - 0.0
29/02:00am 23.5 24.1 19.4 78 2.6 SE 15 17 8 9 1014.7 - 0.0
29/01:30am 23.6 24.4 19.1 76 2.9 SE 13 17 7 9 1014.8 - 0.0
29/01:00am 23.9 24.3 19.0 74 3.1 SE 15 19 8 10 1015.0 - 0.0
29/12:30am 24.1 24.6 19.2 74 3.1 SE 15 19 8 10 1015.2 - 0.0
29/12:00am 24.4 25.1 19.7 75 3.0 SSE 15 19 8 10 1015.6 1015.5 0.0
 
Date/Time
CST
Temp
°C
App
Temp
°C
Dew
Point
Rel
Hum
%
Delta-T
°C
Wind Press
QNH
hPa
Press
MSL
hPa
Rain
since 9 am
mm
Dir
 
Spd
km/h
Gust
km/h
Spd
kts
Gust
kts
28/11:30pm 24.7 26.4 20.2 76 2.9 SSE 11 17 6 9 1015.7 - 0.0
28/11:00pm 25.0 26.5 20.5 76 2.9 SE 13 19 7 10 1015.7 - 0.0
28/10:30pm 25.5 27.8 21.4 78 2.7 SE 11 17 6 9 1015.8 - 0.0
28/10:00pm 25.2 28.0 21.5 80 2.5 E 9 13 5 7 1015.6 - 0.0
28/09:30pm 25.3 28.0 21.4 79 2.6 ENE 9 11 5 6 1015.4 - 0.0
28/09:00pm 25.5 28.1 21.2 77 2.8 E 9 17 5 9 1015.1 1015.0 0.0
28/08:30pm 25.6 27.8 21.1 76 3.0 ENE 11 15 6 8 1014.9 - 0.0
28/08:00pm 25.7 28.1 20.9 75 3.2 NE 9 15 5 8 1014.4 - 0.0
28/07:30pm 25.9 27.9 20.7 73 3.4 NE 11 19 6 10 1014.0 - 0.0
28/07:00pm 26.1 27.4 20.2 70 3.8 NE 13 17 7 9 1013.6 - 0.0
28/06:30pm 26.3 28.2 19.7 67 4.3 NE 9 17 5 9 1013.1 - 0.0
28/06:00pm 26.9 28.2 19.3 63 4.9 NNE 11 20 6 11 1012.7 1012.6 0.0
28/05:30pm 27.7 28.9 19.0 59 5.6 NNE 11 20 6 11 1012.3 - 0.0
28/05:00pm 28.0 28.6 18.7 57 6.0 NNE 13 22 7 12 1012.2 - 0.0
28/04:30pm 28.2 28.7 18.3 55 6.3 NNE 13 20 7 11 1012.1 - 0.0
28/04:00pm 28.3 28.1 18.4 55 6.3 N 17 24 9 13 1012.2 - 0.0
28/03:30pm 29.9 30.2 18.7 51 7.2 N 15 22 8 12 1012.3 - 0.0
28/03:00pm 29.8 29.2 16.6 45 8.3 NNE 15 24 8 13 1012.5 1012.4 0.0
28/02:30pm 30.5 30.1 17.2 44 8.4 NE 15 22 8 12 1013.0 - 0.0
28/02:00pm 30.3 29.8 17.7 46 8.0 ENE 17 24 9 13 1013.4 - 0.0
28/01:30pm 29.9 28.9 16.7 45 8.3 ENE 17 26 9 14 1013.9 - 0.0
28/01:00pm 29.8 28.8 16.6 45 8.3 NE 17 22 9 12 1014.4 - 0.0
28/12:30pm 29.6 28.7 16.8 46 8.0 ESE 17 24 9 13 1015.0 - 0.0
28/12:00pm 29.4 28.6 17.2 47 7.7 E 17 24 9 13 1015.6 1015.5 0.0
28/11:30am 29.5 28.8 17.3 47 7.7 E 17 26 9 14 1016.1 - 0.0
28/11:00am 28.5 27.3 17.1 50 7.2 E 19 26 10 14 1016.5 - 0.0
28/10:30am 28.7 28.7 18.2 53 6.7 E 15 24 8 13 1016.7 - 0.0
28/10:00am 28.2 27.4 18.0 54 6.5 ESE 19 26 10 14 1016.7 - 0.0
28/09:30am 27.7 27.6 18.7 58 5.8 E 17 28 9 15 1016.6 - 0.0
28/09:00am 26.8 27.3 19.2 63 4.9 E 15 22 8 12 1016.4 1016.3 0.0
28/08:30am 25.9 26.4 19.3 67 4.2 E 15 24 8 13 1015.9 - 0.0
28/08:00am 25.2 26.1 19.3 70 3.8 E 13 22 7 12 1015.7 - 0.0
28/07:30am 24.4 26.0 19.9 76 2.9 E 11 20 6 11 1015.6 - 0.0
28/07:00am 23.5 25.2 19.4 78 2.6 E 9 17 5 9 1015.5 - 0.0
28/06:30am 23.1 24.5 19.5 80 2.3 ESE 11 17 6 9 1015.2 - 0.0
28/06:00am 21.6 23.5 19.7 89 1.2 ESE 9 11 5 6 1014.7 1014.6 0.0
28/05:30am 21.3 23.5 19.6 90 1.1 ESE 7 9 4 5 1014.6 - 0.0
28/05:00am 21.1 24.4 19.0 88 1.3 CALM 0 0 0 0 1014.4 - 0.0
28/04:30am 21.7 23.8 19.4 87 1.5 SE 7 9 4 5 1014.4 - 0.0
28/04:00am 22.0 24.2 19.5 86 1.6 SSE 7 11 4 6 1014.4 - 0.0
28/03:30am 22.0 24.1 19.4 85 1.7 SSE 7 11 4 6 1014.5 - 0.0
28/03:00am 22.2 24.2 19.2 83 1.9 SSE 7 9 4 5 1014.7 1014.6 0.0
28/02:30am 22.8 25.0 19.6 82 2.0 SE 7 11 4 6 1014.7 - 0.0
28/02:00am 23.7 24.6 20.0 80 2.4 SE 15 19 8 10 1015.0 - 0.0
28/01:30am 24.0 25.3 20.1 79 2.5 ESE 13 20 7 11 1015.2 - 0.0
28/01:00am 24.3 25.3 20.2 78 2.7 ESE 15 20 8 11 1015.6 - 0.0
28/12:30am 24.6 25.1 20.1 76 2.9 ESE 17 26 9 14 1015.8 - 0.0
28/12:00am 24.9 25.5 20.2 75 3.1 ESE 17 24 9 13 1015.9 1015.8 0.0
 
Date/Time
CST
Temp
°C
App
Temp
°C
Dew
Point
Rel
Hum
%
Delta-T
°C
Wind Press
QNH
hPa
Press
MSL
hPa
Rain
since 9 am
mm
Dir
 
Spd
km/h
Gust
km/h
Spd
kts
Gust
kts
27/11:30pm 25.2 25.2 19.8 72 3.5 ESE 19 28 10 15 1016.0 - 0.0
27/11:00pm 25.6 26.3 19.7 70 3.8 ESE 15 24 8 13 1015.9 - 0.0
27/10:30pm 26.1 25.8 19.2 65 4.4 ESE 19 32 10 17 1015.8 - 0.0
27/10:00pm 26.6 26.5 19.5 65 4.6 ESE 19 28 10 15 1015.7 - 0.0
27/09:30pm 26.1 27.8 20.9 73 3.4 E 13 22 7 12 1015.4 - 0.0
27/09:00pm 25.9 28.4 21.8 78 2.7 E 11 19 6 10 1015.0 1014.9 0.0
27/08:30pm 25.7 28.4 21.4 77 2.9 NE 9 15 5 8 1014.8 - 0.0
27/08:00pm 25.9 28.0 20.9 74 3.3 NNE 11 17 6 9 1014.5 - 0.0
27/07:30pm 26.0 28.8 20.8 73 3.4 NNE 7 17 4 9 1014.5 - 0.0
27/07:00pm 26.2 28.7 20.3 70 3.9 NNE 7 13 4 7 1014.0 - 0.0
27/06:30pm 26.5 28.6 20.1 68 4.2 NNE 9 13 5 7 1013.7 - 0.0
27/06:00pm 27.1 29.2 20.2 66 4.5 NNE 9 17 5 9 1013.3 1013.2 0.0
27/05:30pm 27.6 29.3 20.2 64 4.8 N 11 19 6 10 1013.1 - 0.0
27/05:00pm 27.7 29.1 20.3 64 4.9 NNE 13 24 7 13 1012.8 - 0.0
27/04:30pm 27.8 28.9 20.4 64 4.9 N 15 24 8 13 1012.5 - 0.0
27/04:00pm 28.7 30.3 20.7 62 5.3 N 13 20 7 11 1012.6 - 0.0
27/03:30pm 28.7 28.8 19.9 59 5.8 N 19 24 10 13 1012.9 - 0.0
27/03:00pm 29.2 30.1 19.2 54 6.5 NE 13 24 7 13 1013.2 1013.1 0.0
27/02:30pm 29.3 30.2 19.3 55 6.5 NE 13 22 7 12 1013.6 - 0.0
27/02:00pm 28.9 29.2 19.5 57 6.1 ENE 17 24 9 13 1013.9 - 0.0
27/01:30pm 29.2 29.3 19.2 54 6.5 ENE 17 24 9 13 1014.1 - 0.0
27/01:00pm 28.6 28.7 19.2 56 6.1 ENE 17 24 9 13 1014.6 - 0.0
27/12:30pm 28.5 29.4 20.0 60 5.6 ENE 15 24 8 13 1015.0 - 0.0
27/12:00pm 27.9 28.5 19.4 60 5.5 ENE 15 30 8 16 1015.3 1015.2 0.0
27/11:30am 28.1 28.3 19.3 58 5.7 ESE 17 24 9 13 1015.8 - 0.0
27/11:00am 27.8 27.4 19.3 60 5.5 ESE 20 28 11 15 1016.3 - 0.0
27/10:30am 26.4 26.9 19.3 65 4.6 E 15 20 8 11 1016.5 - 0.0
27/10:00am 27.2 28.0 19.8 64 4.8 E 15 26 8 14 1016.8 - 0.0
27/09:30am 26.3 26.6 19.7 67 4.3 ESE 17 24 9 13 1016.7 - 0.0
27/09:00am 26.4 27.4 20.3 69 4.0 ESE 15 22 8 12 1016.4 1016.3 0.0
27/08:30am 25.5 27.1 20.7 75 3.1 E 13 19 7 10 1016.2 - 0.0
27/08:00am 24.4 26.5 20.9 81 2.3 ESE 11 17 6 9 1016.1 - 0.0
27/07:30am 21.5 25.1 19.8 90 1.1 CALM 0 0 0 0 1015.8 - 0.0
27/07:00am 20.6 24.0 19.3 92 0.8 CALM 0 0 0 0 1015.3 - 0.0
27/06:30am 20.7 22.9 19.2 91 0.9 SSE 6 7 3 4 1015.0 - 0.0
27/06:00am 20.8 23.0 19.1 90 1.1 SSE 6 7 3 4 1014.6 1014.5 0.0
27/05:30am 21.3 23.5 19.6 90 1.1 SE 7 9 4 5 1014.4 - 0.0
27/05:00am 21.4 23.5 19.3 88 1.3 SE 7 9 4 5 1014.1 - 0.0
27/04:30am 23.1 24.3 19.9 82 2.1 ESE 13 19 7 10 1014.0 - 0.0
27/04:00am 23.0 24.7 20.1 84 1.9 ESE 11 17 6 9 1014.0 - 0.0
27/03:30am 23.2 24.5 20.2 83 1.9 E 13 20 7 11 1013.8 - 0.0
27/03:00am 23.2 24.9 20.2 83 1.9 E 11 19 6 10 1013.8 1013.7 0.0
27/02:30am 23.4 24.7 20.1 82 2.1 E 13 17 7 9 1014.1 - 0.0
27/02:00am 23.6 24.9 20.1 81 2.3 E 13 20 7 11 1014.3 - 0.0
27/01:30am 23.8 25.2 20.3 81 2.3 E 13 20 7 11 1014.3 - 0.0
27/01:00am 23.9 25.3 20.4 81 2.3 E 13 20 7 11 1014.6 - 0.0
27/12:30am 24.1 25.5 20.4 80 2.4 E 13 19 7 10 1014.8 - 0.0
27/12:00am 24.3 26.3 20.8 81 2.3 E 11 19 6 10 1015.0 1014.9 0.0
 
Date/Time
CST
Temp
°C
App
Temp
°C
Dew
Point
Rel
Hum
%
Delta-T
°C
Wind Press
QNH
hPa
Press
MSL
hPa
Rain
since 9 am
mm
Dir
 
Spd
km/h
Gust
km/h
Spd
kts
Gust
kts
26/11:30pm 24.3 26.2 20.6 80 2.4 E 11 15 6 8 1015.0 - 0.0
26/11:00pm 24.5 26.4 20.6 79 2.5 E 11 17 6 9 1015.0 - 0.0
26/10:30pm 24.7 26.8 21.0 80 2.4 E 11 22 6 12 1014.8 - 0.0
26/10:00pm 24.9 26.4 20.6 77 2.8 ENE 13 17 7 9 1015.0 - 0.0
26/09:30pm 25.1 27.0 20.6 76 2.9 ENE 11 20 6 11 1014.8 - 0.0
26/09:00pm 25.3 27.0 21.0 77 2.8 ENE 13 19 7 10 1014.7 1014.6 0.0
26/08:30pm 25.3 27.6 21.4 79 2.6 NE 11 17 6 9 1014.6 - 0.0
26/08:00pm 25.4 28.2 20.9 76 3.0 NE 7 11 4 6 1014.2 - 0.0
26/07:30pm 25.5 28.0 20.3 73 3.4 NE 7 9 4 5 1013.9 - 0.0
26/07:00pm 25.9 28.5 20.5 72 3.5 NE 7 11 4 6 1013.6 - 0.0
26/06:30pm 26.2 28.0 20.3 70 3.9 NNE 11 19 6 10 1013.3 - 0.0
26/06:00pm 26.8 28.8 19.9 66 4.5 NNE 9 15 5 8 1013.0 1012.9 0.0
26/05:30pm 27.6 29.3 20.2 64 4.8 NNE 11 20 6 11 1012.9 - 0.0
26/05:00pm 28.3 29.5 19.8 60 5.5 NNE 13 20 7 11 1012.7 - 0.0
26/04:30pm 29.0 30.1 19.6 57 6.1 NE 13 22 7 12 1012.7 - 0.0
26/04:00pm 29.3 29.6 18.7 52 6.8 NNE 15 22 8 12 1013.0 - 0.0
26/03:30pm 29.7 30.1 19.1 53 6.9 NE 15 24 8 13 1013.0 - 0.0
26/03:00pm 29.4 29.7 18.8 53 6.8 ENE 15 20 8 11 1013.3 1013.2 0.0
26/02:30pm 29.7 30.3 19.4 54 6.7 NE 15 22 8 12 1013.7 - 0.0
26/02:00pm 29.6 30.0 19.0 53 6.9 E 15 22 8 12 1014.4 - 0.0
26/01:30pm 28.9 29.0 19.2 55 6.3 ENE 17 24 9 13 1014.8 - 0.0
26/01:00pm 28.7 29.4 19.6 58 5.9 ENE 15 24 8 13 1015.3 - 0.0

Other Formats:

Comma delimited format used in spreadsheet applications
http://www.bom.gov.au/fwo/IDD60801/IDD60801.94140.axf

JavaScript Object Notation format (JSON) in row-major order
http://www.bom.gov.au/fwo/IDD60801/IDD60801.94140.json